Terminal Aerodrome Forecast
Issued by NWS

Home | Current Version | Previous Version | Text Only | Print | Product List | Glossary On
Versions: 1 2 3 4 5 6 7 8 9 10 11 12 13 14
000
FTUS46 KSTO 221100 AAA
TAFRDD
TAF AMD
KRDD 221109Z 2211/2306 VRB03KT 6SM BR BKN007 OVC015
      TEMPO 2211/2214 3SM BR OVC004
     FM222100 VRB03KT P6SM SCT250
     FM230500 35002KT 4SM BR SCT008=

USA.gov is the U.S. government's official web portal to all federal, state and local government web resources and services.